Time;durP1;ratioP1;P1;durP2;ratioP2;P2;SDS_P1;SDS_P2;PMS_P1;PMS_P2;Temp;Humidity;BMP_temperature;BMP_pressure;BME280_temperature;BME280_humidity;BME280_pressure;Samples;Min_cycle;Max_cycle;Signal;HPM_P1;HPM_P2
2022/09/28 00:01:17;;;;;;;12.82;6.30;;;7.50;99.90;;;;;;5072633;28;20085;-65
2022/09/28 00:03:44;;;;;;;12.80;6.25;;;;;;;;;;5072531;28;20055;-66
2022/09/28 00:06:13;;;;;;;11.23;7.45;;;7.20;99.90;;;;;;5071452;28;20052;-66
2022/09/28 00:08:39;;;;;;;14.90;7.13;;;;;;;;;;5072393;28;20056;-65
2022/09/28 00:11:07;;;;;;;13.32;7.68;;;7.20;99.90;;;;;;5072407;28;20496;-66
2022/09/28 00:13:34;;;;;;;15.73;6.93;;;7.40;99.90;;;;;;5072364;28;20097;-65
2022/09/28 00:16:01;;;;;;;16.23;7.78;;;7.40;99.90;;;;;;5072030;28;20060;-65
2022/09/28 00:18:27;;;;;;;12.80;7.90;;;7.30;99.90;;;;;;5072232;28;20049;-65
2022/09/28 00:21:04;;;;;;;15.70;7.28;;;7.20;99.90;;;;;;5072300;28;20044;-65
2022/09/28 00:23:30;;;;;;;15.07;7.90;;;7.50;99.90;;;;;;5072283;28;20049;-65
2022/09/28 00:26:04;;;;;;;15.80;7.45;;;7.40;99.90;;;;;;5072234;28;20396;-65
2022/09/28 00:28:30;;;;;;;15.13;7.78;;;;;;;;;;5070769;28;20052;-65
2022/09/28 00:30:57;;;;;;;14.40;8.02;;;6.90;99.90;;;;;;5071855;28;20063;-65
2022/09/28 00:33:23;;;;;;;15.88;8.20;;;7.20;99.90;;;;;;5072364;28;20533;-65
2022/09/28 00:35:56;;;;;;;16.90;8.02;;;;;;;;;;5072158;28;20128;-64
2022/09/28 00:38:25;;;;;;;14.93;8.95;;;7.20;99.90;;;;;;5070864;28;20095;-65
2022/09/28 00:40:51;;;;;;;14.38;8.15;;;7.30;99.90;;;;;;5071742;28;20036;-64
2022/09/28 00:43:18;;;;;;;15.23;9.10;;;7.40;99.90;;;;;;5071024;28;20499;-64
2022/09/28 00:45:44;;;;;;;19.15;9.00;;;7.50;99.90;;;;;;5070516;28;20052;-65
2022/09/28 00:48:10;;;;;;;19.25;9.30;;;7.60;99.90;;;;;;5071996;28;20058;-64
2022/09/28 00:50:37;;;;;;;24.75;9.65;;;;;;;;;;5071929;28;20040;-65
2022/09/28 00:53:09;;;;;;;18.45;9.75;;;;;;;;;;5071953;28;20056;-65
2022/09/28 00:55:50;;;;;;;21.13;9.75;;;;;;;;;;5071960;28;20044;-64
2022/09/28 00:58:28;;;;;;;18.42;9.57;;;7.20;99.90;;;;;;5071894;28;20094;-65
2022/09/28 01:00:58;;;;;;;27.00;10.90;;;7.40;99.90;;;;;;5070428;28;20048;-65
2022/09/28 01:03:27;;;;;;;19.55;10.02;;;7.30;99.90;;;;;;5071850;28;20109;-66
2022/09/28 01:05:56;;;;;;;18.98;9.73;;;7.30;99.90;;;;;;5070520;28;20559;-65
2022/09/28 01:08:26;;;;;;;19.20;9.60;;;7.40;99.90;;;;;;5071793;28;20116;-65
2022/09/28 01:10:52;;;;;;;20.85;10.73;;;7.20;99.90;;;;;;5071417;28;20521;-65
2022/09/28 01:13:19;;;;;;;18.27;10.15;;;7.00;99.90;;;;;;5071958;28;20083;-64
2022/09/28 01:16:11;;;;;;;19.77;9.98;;;7.10;99.90;;;;;;5071628;28;20040;-65
2022/09/28 01:19:00;;;;;;;18.95;10.90;;;7.10;99.90;;;;;;5071750;28;20037;-65
2022/09/28 01:21:26;;;;;;;19.80;10.70;;;7.30;99.90;;;;;;5071783;28;20048;-65
2022/09/28 01:24:10;;;;;;;17.63;10.20;;;7.30;99.90;;;;;;5071707;28;20041;-64
2022/09/28 01:26:46;;;;;;;18.13;10.57;;;7.00;99.90;;;;;;5071636;28;20373;-65
2022/09/28 01:29:35;;;;;;;18.30;10.63;;;7.20;99.90;;;;;;5071112;28;20396;-64
2022/09/28 01:32:16;;;;;;;16.58;9.55;;;7.20;99.90;;;;;;5071627;28;20052;-64
2022/09/28 01:35:13;;;;;;;23.35;10.55;;;7.40;99.90;;;;;;5071606;28;20045;-64
2022/09/28 01:37:50;;;;;;;21.20;11.07;;;7.10;99.90;;;;;;5071580;28;20143;-65
2022/09/28 01:40:17;;;;;;;;;;;7.10;99.90;;;;;;5071973;28;20052;-65
2022/09/28 01:42:44;;;;;;;22.77;10.75;;;;;;;;;;5086996;28;19928;-64
2022/09/28 01:45:27;;;;;;;20.25;10.98;;;7.10;99.90;;;;;;5071417;28;20134;-65
2022/09/28 01:47:56;;;;;;;24.27;11.25;;;;;;;;;;5071502;28;20044;-64
2022/09/28 01:50:24;;;;;;;17.52;10.65;;;6.80;99.90;;;;;;5071312;28;20396;-65
2022/09/28 01:52:50;;;;;;;21.08;10.25;;;;;;;;;;5072230;28;20060;-65
2022/09/28 01:55:40;;;;;;;24.15;10.80;;;7.00;99.90;;;;;;5074952;28;20143;-65
2022/09/28 01:58:19;;;;;;;25.88;11.55;;;7.40;99.90;;;;;;5074711;28;20394;-65
2022/09/28 02:00:50;;;;;;;26.42;11.73;;;7.20;99.90;;;;;;5074928;28;20084;-65
2022/09/28 02:03:41;;;;;;;24.23;10.88;;;7.10;99.90;;;;;;5074897;28;20427;-64
2022/09/28 02:06:25;;;;;;;19.80;11.52;;;6.90;99.90;;;;;;5074859;28;20156;-65
2022/09/28 02:08:56;;;;;;;20.15;10.85;;;6.90;99.90;;;;;;5074355;28;20504;-65
2022/09/28 02:11:22;;;;;;;16.35;10.32;;;7.00;99.90;;;;;;5074691;28;20052;-65
2022/09/28 02:13:48;;;;;;;24.80;11.32;;;;;;;;;;5074391;28;20429;-65
2022/09/28 02:16:30;;;;;;;21.95;12.18;;;7.00;99.90;;;;;;5074585;28;20135;-64
2022/09/28 02:18:56;;;;;;;23.10;11.57;;;;;;;;;;5074569;28;20107;-64
2022/09/28 02:21:24;;;;;;;23.20;11.90;;;;;;;;;;5073172;28;20080;-65
2022/09/28 02:23:56;;;;;;;22.75;11.38;;;;;;;;;;5074400;28;20056;-64
2022/09/28 02:26:28;;;;;;;21.48;11.63;;;7.20;99.90;;;;;;5074082;28;20084;-64
2022/09/28 02:28:53;;;;;;;24.38;12.20;;;7.10;99.90;;;;;;5074255;28;20091;-65
2022/09/28 02:31:19;;;;;;;31.50;12.65;;;7.30;99.90;;;;;;5072983;28;20049;-64
2022/09/28 02:33:46;;;;;;;29.58;12.60;;;;;;;;;;5074259;28;20131;-65
2022/09/28 02:36:12;;;;;;;27.42;12.23;;;;;;;;;;5074114;28;20098;-64
2022/09/28 02:38:37;;;;;;;26.88;12.45;;;7.20;99.90;;;;;;5074128;28;20045;-64
2022/09/28 02:41:12;;;;;;;25.50;12.70;;;7.10;99.90;;;;;;5073859;28;20168;-64
2022/09/28 02:44:00;;;;;;;23.13;11.82;;;7.40;99.90;;;;;;5074120;28;20063;-64
2022/09/28 02:46:55;;;;;;;24.30;11.32;;;7.10;99.90;;;;;;5073535;28;20417;-64
2022/09/28 02:49:53;;;;;;;23.52;13.05;;;7.40;99.90;;;;;;5073904;28;20063;-63
2022/09/28 02:52:35;;;;;;;26.50;12.48;;;7.40;99.90;;;;;;5051976;28;20063;-64
2022/09/28 02:55:35;;;;;;;23.33;12.65;;;7.40;99.90;;;;;;5072639;28;20084;-64
2022/09/28 02:58:25;;;;;;;23.77;12.95;;;7.10;99.90;;;;;;5073820;28;20044;-64
2022/09/28 03:00:59;;;;;;;25.25;13.13;;;7.20;99.90;;;;;;5072756;28;20091;-64
2022/09/28 03:03:45;;;;;;;35.63;14.55;;;7.30;99.90;;;;;;5073587;28;20171;-63
2022/09/28 03:06:19;;;;;;;29.92;14.70;;;7.40;99.90;;;;;;5073918;28;20531;-65
2022/09/28 03:08:55;;;;;;;37.17;15.60;;;;;;;;;;5073708;28;20080;-64
2022/09/28 03:11:27;;;;;;;32.25;15.10;;;7.30;99.90;;;;;;5073295;28;20048;-65
2022/09/28 03:13:54;;;;;;;32.95;15.07;;;7.60;99.90;;;;;;5073479;28;20044;-64
2022/09/28 03:16:19;;;;;;;36.33;15.48;;;7.50;99.90;;;;;;5073351;28;20536;-63
2022/09/28 03:18:46;;;;;;;37.42;16.88;;;;;;;;;;5073313;28;20087;-64
2022/09/28 03:21:12;;;;;;;;;;;7.60;99.90;;;;;;5073705;28;20131;-65
2022/09/28 03:23:38;;;;;;;37.03;15.52;;;7.60;99.90;;;;;;5073160;28;19921;-63
2022/09/28 03:26:06;;;;;;;40.20;16.55;;;7.80;99.90;;;;;;5072950;28;20087;-63
2022/09/28 03:28:33;;;;;;;39.83;17.13;;;;;;;;;;5072898;28;20064;-65
2022/09/28 03:30:59;;;;;;;38.20;17.17;;;7.60;99.90;;;;;;5072983;28;20072;-64
2022/09/28 03:33:24;;;;;;;37.58;16.48;;;7.70;99.90;;;;;;5073030;28;20464;-64
2022/09/28 03:35:50;;;;;;;34.13;15.30;;;;;;;;;;5073031;28;20100;-64
2022/09/28 03:38:17;;;;;;;40.03;17.25;;;7.60;99.90;;;;;;5072941;28;20044;-64
2022/09/28 03:40:50;;;;;;;36.40;16.55;;;7.60;99.90;;;;;;5072631;28;20141;-63
2022/09/28 03:43:16;;;;;;;35.33;16.17;;;8.00;99.90;;;;;;5072946;28;20484;-63
2022/09/28 03:45:42;;;;;;;37.80;15.82;;;7.70;99.90;;;;;;5071530;28;20052;-63
2022/09/28 03:48:07;;;;;;;42.55;15.68;;;7.50;99.90;;;;;;5072806;28;20052;-65
2022/09/28 03:50:33;;;;;;;31.27;14.88;;;;;;;;;;5072913;28;20491;-65
2022/09/28 03:53:03;;;;;;;37.55;16.00;;;7.50;99.90;;;;;;5072700;28;20051;-64
2022/09/28 03:55:29;;;;;;;31.85;14.93;;;7.60;99.90;;;;;;5072384;28;20078;-64
2022/09/28 03:57:54;;;;;;;30.95;14.45;;;7.50;99.90;;;;;;5072645;28;20048;-64
2022/09/28 04:00:20;;;;;;;30.55;14.93;;;7.40;99.90;;;;;;5072586;28;20101;-64
2022/09/28 04:02:46;;;;;;;25.95;13.93;;;;;;;;;;5072300;28;20088;-64
2022/09/28 04:05:12;;;;;;;35.50;14.68;;;7.50;99.90;;;;;;5072502;28;20139;-64
2022/09/28 04:07:38;;;;;;;31.20;13.98;;;7.40;99.90;;;;;;5072445;28;20127;-64
2022/09/28 04:10:03;;;;;;;28.83;14.77;;;7.40;99.90;;;;;;5072121;28;20080;-64
2022/09/28 04:12:29;;;;;;;39.22;15.18;;;;;;;;;;5072377;28;20393;-65
2022/09/28 04:14:55;;;;;;;43.97;15.35;;;7.20;99.90;;;;;;5072225;28;20052;-64
2022/09/28 04:17:21;;;;;;;34.85;14.70;;;7.00;99.90;;;;;;5072084;28;20048;-67
2022/09/28 04:19:46;;;;;;;26.63;13.30;;;7.20;99.90;;;;;;5072293;28;20041;-64
2022/09/28 04:22:13;;;;;;;31.25;14.05;;;;;;;;;;5072310;28;20040;-64
2022/09/28 04:24:40;;;;;;;33.03;14.90;;;6.80;99.90;;;;;;5072227;28;20048;-64
2022/09/28 04:29:50;;;;;;;35.85;15.52;;;7.00;99.90;;;;;;5072172;28;20227;-66
2022/09/28 04:32:16;;;;;;;38.35;15.45;;;7.10;99.90;;;;;;5070979;28;20160;-63
2022/09/28 04:34:41;;;;;;;34.80;15.63;;;6.80;99.90;;;;;;5072155;28;20055;-64
2022/09/28 04:37:07;;;;;;;60.00;16.75;;;6.90;99.90;;;;;;5071830;28;20045;-64
2022/09/28 04:39:33;;;;;;;31.63;13.43;;;;;;;;;;5072056;28;20047;-64
2022/09/28 04:41:59;;;;;;;28.88;14.05;;;7.00;99.90;;;;;;5072100;28;20045;-64
2022/09/28 04:44:24;;;;;;;27.25;14.07;;;6.80;99.90;;;;;;5072082;28;20056;-64
2022/09/28 04:46:50;;;;;;;34.55;14.32;;;7.00;99.90;;;;;;5072038;28;20548;-64
2022/09/28 04:49:16;;;;;;;44.83;15.30;;;7.10;99.90;;;;;;5071965;28;20050;-64
2022/09/28 04:51:41;;;;;;;36.58;14.48;;;6.70;99.90;;;;;;5071780;28;20133;-67
2022/09/28 04:54:07;;;;;;;36.70;14.95;;;6.90;99.90;;;;;;5072250;28;20048;-64
2022/09/28 04:56:33;;;;;;;32.42;13.98;;;6.80;99.90;;;;;;5072100;28;20036;-64
2022/09/28 04:58:59;;;;;;;37.60;14.43;;;;;;;;;;5071005;28;20048;-64
2022/09/28 05:01:25;;;;;;;36.65;14.88;;;;;;;;;;5071888;28;20457;-64
2022/09/28 05:03:50;;;;;;;27.50;13.85;;;7.00;99.90;;;;;;5071885;28;20044;-64
2022/09/28 05:06:16;;;;;;;35.70;13.80;;;6.70;99.90;;;;;;5071617;28;20044;-64
2022/09/28 05:08:45;;;;;;;34.35;14.25;;;;;;;;;;5071833;28;20125;-65
2022/09/28 05:11:12;;;;;;;25.50;12.70;;;6.70;99.90;;;;;;5071807;28;20044;-64
2022/09/28 05:13:44;;;;;;;32.35;11.43;;;6.60;99.90;;;;;;5071761;28;20110;-66
2022/09/28 05:16:10;;;;;;;163.30;11.68;;;;;;;;;;5071836;28;20049;-64
2022/09/28 05:18:36;;;;;;;;;;;6.50;99.90;;;;;;5072127;28;20454;-64
2022/09/28 05:21:01;;;;;;;48.78;9.40;;;6.40;99.90;;;;;;5070392;28;19924;-64
2022/09/28 05:23:27;;;;;;;23.10;9.70;;;;;;;;;;5071684;28;20057;-64
2022/09/28 05:25:54;;;;;;;26.23;10.75;;;;;;;;;;5071751;28;20070;-67
2022/09/28 05:28:24;;;;;;;26.40;11.23;;;;;;;;;;5089039;28;20238;-64
2022/09/28 05:30:51;;;;;;;29.00;11.88;;;;;;;;;;5075373;28;20087;-64
2022/09/28 05:33:17;;;;;;;19.48;10.00;;;;;;;;;;5075458;28;20098;-64
2022/09/28 05:35:43;;;;;;;16.90;10.10;;;;;;;;;;5075063;28;20049;-64
2022/09/28 05:38:09;;;;;;;18.05;9.10;;;6.00;99.90;;;;;;5075307;28;20048;-64
2022/09/28 05:40:35;;;;;;;14.80;9.38;;;;;;;;;;5075527;28;20052;-66
2022/09/28 05:43:01;;;;;;;20.50;10.52;;;6.10;99.90;;;;;;5075136;28;20054;-64
2022/09/28 05:45:28;;;;;;;17.98;9.82;;;;;;;;;;5075177;28;20052;-64
2022/09/28 05:47:54;;;;;;;25.45;10.65;;;6.20;99.90;;;;;;5075140;28;20135;-64
2022/09/28 05:50:20;;;;;;;28.52;10.98;;;;;;;;;;5075043;28;20135;-66
2022/09/28 05:52:46;;;;;;;;;;;6.10;99.90;;;;;;5075418;28;20048;-64
2022/09/28 05:55:12;;;;;;;31.33;12.38;;;;;;;;;;5075006;28;20356;-64
2022/09/28 05:57:38;;;;;;;;;;;;;;;;;;5068452;28;20957;-73
2022/09/28 06:00:07;;;;;;;26.95;11.48;;;;;;;;;;5065411;28;19927;-73
2022/09/28 06:02:34;;;;;;;32.42;10.65;;;6.40;99.90;;;;;;5053997;28;20051;-64
2022/09/28 06:04:59;;;;;;;;;;;6.00;99.90;;;;;;5069983;28;20082;-63
2022/09/28 06:07:25;;;;;;;25.05;11.40;;;;;;;;;;5073985;28;20532;-67
2022/09/28 06:09:52;;;;;;;19.67;10.63;;;;;;;;;;5074032;28;20087;-65
2022/09/28 06:12:18;;;;;;;20.42;9.68;;;;;;;;;;5072622;28;20117;-72
2022/09/28 06:14:45;;;;;;;20.73;10.60;;;;;;;;;;5073624;28;20048;-64
2022/09/28 06:17:11;;;;;;;23.02;10.63;;;6.50;99.90;;;;;;5073727;28;20518;-64
2022/09/28 06:19:37;;;;;;;33.20;11.65;;;6.60;99.90;;;;;;5073642;28;20044;-66
2022/09/28 06:22:03;;;;;;;21.77;10.85;;;6.50;99.90;;;;;;5073591;28;20041;-64
2022/09/28 06:24:29;;;;;;;25.30;12.38;;;6.40;99.90;;;;;;5074057;28;20139;-64
2022/09/28 06:26:55;;;;;;;26.23;12.73;;;;;;;;;;5074357;28;20050;-64
2022/09/28 06:29:21;;;;;;;27.13;12.77;;;6.70;99.90;;;;;;5073263;28;20075;-64
2022/09/28 06:31:47;;;;;;;30.60;14.00;;;;;;;;;;5072672;28;20481;-64
2022/09/28 06:34:14;;;;;;;29.85;12.85;;;6.60;99.90;;;;;;5073627;28;20059;-65
2022/09/28 06:36:40;;;;;;;30.50;13.88;;;;;;;;;;5073287;28;20055;-64
2022/09/28 06:39:06;;;;;;;31.42;15.02;;;6.90;99.90;;;;;;5073285;28;20053;-64
2022/09/28 06:41:32;;;;;;;37.47;16.77;;;6.90;99.90;;;;;;5073743;28;20143;-65
2022/09/28 06:43:57;;;;;;;36.75;16.02;;;7.20;99.90;;;;;;5073617;28;20586;-64
2022/09/28 06:46:24;;;;;;;34.45;16.25;;;;;;;;;;5073818;28;20044;-67
2022/09/28 06:48:50;;;;;;;38.25;16.90;;;7.40;99.90;;;;;;5073422;28;20053;-64
2022/09/28 06:51:16;;;;;;;33.10;15.75;;;7.40;99.90;;;;;;5073028;28;20049;-64
2022/09/28 06:53:42;;;;;;;35.77;16.33;;;;;;;;;;5057245;28;20048;-65
2022/09/28 06:56:09;;;;;;;35.97;15.25;;;7.40;99.90;;;;;;5052874;28;20283;-65
2022/09/28 06:58:35;;;;;;;34.45;16.35;;;7.70;99.90;;;;;;5052226;28;20194;-75
2022/09/28 07:01:01;;;;;;;36.72;16.02;;;7.30;99.90;;;;;;5053424;28;20528;-66
2022/09/28 07:03:27;;;;;;;34.83;17.60;;;;;;;;;;5053234;28;20043;-64
2022/09/28 07:05:54;;;;;;;32.70;16.83;;;7.70;99.90;;;;;;5053353;28;20489;-64
2022/09/28 07:08:23;;;;;;;34.28;16.92;;;;;;;;;;5053107;28;20057;-64
2022/09/28 07:10:55;;;;;;;39.75;16.50;;;;;;;;;;5053229;28;20051;-66
2022/09/28 07:13:22;;;;;;;38.00;17.75;;;8.30;99.90;;;;;;5053300;28;20057;-64
2022/09/28 07:15:56;;;;;;;34.67;16.10;;;8.30;99.90;;;;;;5053202;28;20055;-64
2022/09/28 07:18:22;;;;;;;37.97;16.67;;;8.30;99.90;;;;;;5053055;28;20072;-64
2022/09/28 07:20:48;;;;;;;33.60;16.88;;;8.30;99.90;;;;;;5055073;28;20367;-66
2022/09/28 07:23:14;;;;;;;;;;;8.70;99.90;;;;;;5071997;28;20637;-65
2022/09/28 07:25:44;;;;;;;32.20;16.48;;;8.60;99.90;;;;;;5070965;28;19928;-66
2022/09/28 07:28:10;;;;;;;33.30;17.15;;;8.80;99.90;;;;;;5071302;28;20056;-66
2022/09/28 07:30:37;;;;;;;38.67;16.42;;;;;;;;;;5072714;28;20467;-66
2022/09/28 07:33:05;;;;;;;35.20;16.70;;;9.00;99.90;;;;;;5072468;28;20049;-66
2022/09/28 07:35:33;;;;;;;26.05;14.07;;;8.90;99.90;;;;;;5072384;28;20725;-65
2022/09/28 07:38:01;;;;;;;28.70;14.23;;;9.30;99.90;;;;;;5072937;28;20103;-67
2022/09/28 07:43:19;;;;;;;27.60;13.68;;;9.00;99.90;;;;;;5072648;28;20052;-66
2022/09/28 07:45:46;;;;;;;26.65;12.52;;;9.20;99.90;;;;;;5072609;28;20048;-66
2022/09/28 07:48:15;;;;;;;23.38;11.73;;;;;;;;;;5072774;28;20381;-66
2022/09/28 07:50:46;;;;;;;26.85;13.18;;;9.30;99.90;;;;;;5071924;28;20041;-66
2022/09/28 07:53:12;;;;;;;17.75;10.23;;;9.70;99.90;;;;;;5072709;28;20127;-66
2022/09/28 07:55:37;;;;;;;24.48;11.63;;;9.50;99.90;;;;;;5072630;28;20124;-66
2022/09/28 07:58:03;;;;;;;20.42;10.55;;;9.80;99.90;;;;;;5072598;28;20633;-66
2022/09/28 08:00:31;;;;;;;18.63;9.98;;;9.70;99.90;;;;;;5072306;28;20409;-68
2022/09/28 08:03:01;;;;;;;14.00;9.23;;;9.70;99.90;;;;;;5072470;28;20044;-66
2022/09/28 08:05:30;;;;;;;17.10;8.98;;;9.70;99.90;;;;;;5072472;28;20047;-66
2022/09/28 08:07:58;;;;;;;15.73;9.40;;;10.20;99.90;;;;;;5072467;28;20055;-66
2022/09/28 08:10:27;;;;;;;14.98;8.82;;;10.10;99.90;;;;;;5071042;28;20132;-67
2022/09/28 08:12:58;;;;;;;14.57;7.75;;;10.20;99.90;;;;;;5072346;28;20060;-66
2022/09/28 08:15:24;;;;;;;13.90;8.20;;;10.60;99.90;;;;;;5072190;28;20085;-67
2022/09/28 08:17:50;;;;;;;12.27;6.60;;;10.30;99.90;;;;;;5072169;28;20052;-67
2022/09/28 08:23:04;;;;;;;8.15;4.30;;;10.40;99.90;;;;;;5072261;28;20059;-67
2022/09/28 08:25:30;;;;;;;8.70;3.85;;;10.40;99.90;;;;;;5072179;28;20060;-67
2022/09/28 08:27:56;;;;;;;9.45;2.88;;;10.60;99.90;;;;;;5071772;28;20041;-68
2022/09/28 08:30:22;;;;;;;8.73;2.80;;;10.80;99.90;;;;;;5071749;28;20040;-67
2022/09/28 08:32:48;;;;;;;8.38;2.88;;;10.60;99.90;;;;;;5072145;28;20052;-67
2022/09/28 08:35:14;;;;;;;;;;;10.60;99.90;;;;;;5072525;28;20119;-67
2022/09/28 08:37:39;;;;;;;6.22;2.80;;;10.80;99.90;;;;;;5072095;28;20021;-68
2022/09/28 08:40:17;;;;;;;7.38;2.88;;;11.00;99.90;;;;;;5072160;28;20040;-67
2022/09/28 08:42:44;;;;;;;4.45;2.50;;;11.00;99.90;;;;;;5072333;28;20049;-67
2022/09/28 08:45:21;;;;;;;3.65;2.63;;;11.20;99.90;;;;;;5071828;28;20056;-67
2022/09/28 08:50:55;;;;;;;6.75;2.58;;;11.50;99.90;;;;;;5071990;28;20076;-67
2022/09/28 08:53:41;;;;;;;3.85;2.50;;;;;;;;;;5071970;28;20045;-67
2022/09/28 08:56:17;;;;;;;6.20;2.33;;;11.40;99.90;;;;;;5071966;28;20052;-67
2022/09/28 08:58:50;;;;;;;7.83;2.10;;;11.40;99.90;;;;;;5071623;28;20049;-67
2022/09/28 09:01:17;;;;;;;6.93;2.15;;;11.60;99.90;;;;;;5071945;28;20590;-67
2022/09/28 09:03:44;;;;;;;2.97;1.40;;;12.10;99.90;;;;;;5075912;28;20048;-67
2022/09/28 09:06:28;;;;;;;6.72;1.90;;;11.80;99.90;;;;;;5074856;28;20113;-67
2022/09/28 09:09:03;;;;;;;6.40;1.80;;;11.80;99.90;;;;;;5075802;28;20044;-67
2022/09/28 09:12:20;;;;;;;16.85;1.80;;;12.10;99.90;;;;;;5075853;28;20400;-67
2022/09/28 09:15:00;;;;;;;3.67;1.85;;;11.90;99.90;;;;;;5052115;28;20064;-68
2022/09/28 09:17:44;;;;;;;5.97;1.90;;;12.00;99.90;;;;;;5075724;28;20044;-67
2022/09/28 09:20:25;;;;;;;7.63;1.70;;;12.60;99.90;;;;;;5075634;28;20123;-68
2022/09/28 09:22:57;;;;;;;4.57;1.95;;;12.40;99.90;;;;;;5075619;28;20113;-68
2022/09/28 09:25:45;;;;;;;4.05;1.60;;;12.40;99.90;;;;;;5075539;28;20480;-67
2022/09/28 09:28:34;;;;;;;5.68;1.73;;;12.40;99.90;;;;;;5073686;28;20045;-68
2022/09/28 09:31:27;;;;;;;2.47;1.15;;;12.50;99.90;;;;;;5075079;28;20396;-68
2022/09/28 09:34:23;;;;;;;2.17;1.10;;;13.10;99.90;;;;;;5075342;28;20075;-68
2022/09/28 09:37:08;;;;;;;4.00;1.27;;;13.30;99.90;;;;;;5075141;28;20049;-67
2022/09/28 09:39:55;;;;;;;4.13;1.20;;;13.40;99.90;;;;;;5075270;28;20087;-67
2022/09/28 09:42:32;;;;;;;;;;;13.80;99.90;;;;;;5075355;28;20143;-67
2022/09/28 09:45:10;;;;;;;4.47;1.30;;;13.50;99.90;;;;;;5075177;28;20356;-69
2022/09/28 09:47:43;;;;;;;2.25;0.77;;;13.50;99.90;;;;;;5075108;28;20052;-68
2022/09/28 09:50:28;;;;;;;4.25;1.02;;;13.10;99.90;;;;;;5074952;28;20056;-68
2022/09/28 09:53:08;;;;;;;4.55;1.10;;;13.10;99.90;;;;;;5066336;28;20432;-67
2022/09/28 09:55:42;;;;;;;2.10;0.75;;;13.20;99.90;;;;;;5053414;28;20151;-68
2022/09/28 09:58:11;;;;;;;2.50;0.90;;;13.30;99.90;;;;;;5054888;28;20126;-67
2022/09/28 10:00:41;;;;;;;1.98;0.80;;;13.20;99.90;;;;;;5054824;28;20485;-68
2022/09/28 10:03:20;;;;;;;1.63;0.70;;;13.40;99.90;;;;;;5054801;28;20044;-69
2022/09/28 10:06:02;;;;;;;1.80;0.50;;;13.30;99.90;;;;;;5054699;28;20064;-69
2022/09/28 10:08:30;;;;;;;3.78;1.00;;;13.50;99.90;;;;;;5054767;28;20382;-68
2022/09/28 10:11:35;;;;;;;2.90;0.50;;;13.60;99.90;;;;;;5053218;28;20045;-69
2022/09/28 10:14:03;;;;;;;2.40;0.95;;;13.40;99.90;;;;;;5030440;28;20060;-67
2022/09/28 10:16:31;;;;;;;4.15;0.70;;;13.80;99.90;;;;;;5054642;28;20052;-68
2022/09/28 10:18:58;;;;;;;3.30;0.60;;;14.20;99.90;;;;;;5054551;28;20037;-67
2022/09/28 10:21:24;;;;;;;6.22;0.70;;;14.00;99.90;;;;;;5054426;28;20084;-68
2022/09/28 10:23:56;;;;;;;4.68;0.70;;;13.90;99.90;;;;;;5054417;28;20052;-67
2022/09/28 10:26:28;;;;;;;1.13;0.60;;;15.00;99.90;;;;;;5054478;28;20045;-68
2022/09/28 10:29:00;;;;;;;1.50;0.50;;;14.00;99.90;;;;;;5054458;28;20053;-67
2022/09/28 10:31:47;;;;;;;2.92;0.50;;;13.90;99.90;;;;;;5054693;28;20052;-71
2022/09/28 10:34:16;;;;;;;4.38;0.70;;;13.70;99.90;;;;;;5054329;28;20049;-68
2022/09/28 10:36:54;;;;;;;1.30;0.60;;;14.30;99.90;;;;;;5054276;28;20056;-68
2022/09/28 10:39:37;;;;;;;3.55;0.60;;;13.70;99.90;;;;;;5053980;28;20159;-68
2022/09/28 10:42:07;;;;;;;2.85;0.93;;;13.50;99.90;;;;;;5054143;28;20060;-68
2022/09/28 10:44:42;;;;;;;0.70;0.60;;;13.20;99.90;;;;;;5054078;28;20052;-68
2022/09/28 10:47:14;;;;;;;3.63;0.50;;;13.20;99.90;;;;;;5054090;28;20044;-68
2022/09/28 10:49:42;;;;;;;1.95;0.57;;;13.30;99.90;;;;;;5053931;28;20049;-68
2022/09/28 10:52:31;;;;;;;0.75;0.60;;;13.30;99.90;;;;;;5053962;28;20040;-67
2022/09/28 10:54:57;;;;;;;3.30;0.80;;;13.30;99.90;;;;;;5053664;28;20049;-68
2022/09/28 10:57:32;;;;;;;6.82;0.73;;;13.50;99.90;;;;;;5053825;28;20063;-68
2022/09/28 10:59:58;;;;;;;3.13;0.75;;;13.60;99.90;;;;;;5052825;28;20057;-68
2022/09/28 11:02:30;;;;;;;2.70;0.80;;;13.80;99.90;;;;;;5053748;28;20369;-68
2022/09/28 11:04:58;;;;;;;6.57;0.90;;;14.00;99.90;;;;;;5053788;28;20045;-67
2022/09/28 11:07:30;;;;;;;5.97;1.08;;;14.20;99.90;;;;;;5053678;28;20138;-67
2022/09/28 11:09:57;;;;;;;9.30;2.00;;;13.80;99.90;;;;;;5053346;28;20041;-68
2022/09/28 11:12:28;;;;;;;6.03;0.93;;;13.80;99.90;;;;;;5053316;28;20584;-69
2022/09/28 11:15:05;;;;;;;5.82;0.93;;;13.80;99.90;;;;;;5053630;28;20060;-68
2022/09/28 11:17:37;;;;;;;2.33;0.88;;;13.40;99.90;;;;;;5053527;28;20044;-68
2022/09/28 11:20:24;;;;;;;2.88;0.77;;;13.10;99.90;;;;;;5053514;28;20107;-67
2022/09/28 11:22:59;;;;;;;2.10;0.90;;;13.30;99.90;;;;;;5052166;28;20057;-67
2022/09/28 11:25:27;;;;;;;2.65;0.90;;;12.90;99.90;;;;;;5052141;28;20053;-68
2022/09/28 11:27:54;;;;;;;5.90;0.80;;;13.20;99.90;;;;;;5053276;28;20049;-68
2022/09/28 11:30:31;;;;;;;6.13;1.40;;;13.00;99.90;;;;;;5051944;28;20422;-67
2022/09/28 11:33:03;;;;;;;2.10;0.73;;;13.20;99.90;;;;;;5053242;28;20084;-68
2022/09/28 11:35:49;;;;;;;2.95;0.60;;;12.70;99.90;;;;;;5053239;28;20045;-67
2022/09/28 11:38:30;;;;;;;3.58;0.80;;;12.90;99.90;;;;;;5052900;28;20092;-69
2022/09/28 11:41:04;;;;;;;2.35;0.55;;;13.30;99.90;;;;;;5053063;28;20047;-68
2022/09/28 11:43:40;;;;;;;2.90;0.75;;;13.60;99.90;;;;;;5053009;28;20175;-68
2022/09/28 11:46:27;;;;;;;4.97;0.80;;;13.80;99.90;;;;;;5052947;28;20056;-68
2022/09/28 11:49:26;;;;;;;2.78;0.85;;;14.20;99.90;;;;;;5052681;28;20507;-68
2022/09/28 11:51:56;;;;;;;2.67;0.80;;;14.50;99.90;;;;;;5044363;28;20056;-68
2022/09/28 11:54:32;;;;;;;1.98;0.80;;;14.70;99.90;;;;;;5052783;28;20059;-67
2022/09/28 11:57:02;;;;;;;4.30;1.65;;;14.80;99.90;;;;;;5052923;28;20059;-67
2022/09/28 11:59:55;;;;;;;4.53;0.77;;;14.60;99.90;;;;;;5052703;28;20040;-67
2022/09/28 12:02:44;;;;;;;4.25;0.90;;;14.20;99.90;;;;;;5052378;28;20045;-67
2022/09/28 12:05:15;;;;;;;4.25;0.80;;;14.40;99.90;;;;;;5052171;28;20057;-66
2022/09/28 12:07:48;;;;;;;2.40;0.50;;;13.70;99.90;;;;;;5052379;28;20084;-67
2022/09/28 12:10:18;;;;;;;3.00;0.77;;;13.60;99.90;;;;;;5052536;28;20040;-67
2022/09/28 12:12:46;;;;;;;3.55;0.77;;;13.60;99.90;;;;;;5052125;28;20528;-67
2022/09/28 12:15:21;;;;;;;1.60;0.60;;;13.50;99.90;;;;;;5052424;28;20125;-69
2022/09/28 12:17:53;;;;;;;1.88;0.52;;;13.10;99.90;;;;;;5052415;28;20045;-68
2022/09/28 12:20:42;;;;;;;2.40;0.63;;;13.20;99.90;;;;;;5052379;28;20478;-67
2022/09/28 12:23:17;;;;;;;2.47;0.75;;;12.90;99.90;;;;;;5052536;28;20053;-67
2022/09/28 12:26:14;;;;;;;3.15;0.80;;;13.20;99.90;;;;;;5052337;28;20060;-69
2022/09/28 12:28:48;;;;;;;0.70;0.70;;;13.10;99.90;;;;;;5052372;28;20067;-67
2022/09/28 12:31:16;;;;;;;7.28;1.20;;;13.60;99.90;;;;;;5052200;28;20091;-66
2022/09/28 12:33:46;;;;;;;2.55;0.77;;;14.30;99.90;;;;;;5052157;28;20115;-66
2022/09/28 12:36:18;;;;;;;0.75;0.43;;;14.50;99.90;;;;;;5050315;28;20084;-66
2022/09/28 12:39:19;;;;;;;2.05;0.88;;;15.00;99.90;;;;;;5052109;28;20045;-66
2022/09/28 12:42:08;;;;;;;3.03;0.73;;;14.90;99.90;;;;;;5046172;28;20088;-66
2022/09/28 12:44:51;;;;;;;3.75;0.65;;;14.70;99.90;;;;;;5052070;28;20123;-66
2022/09/28 12:47:41;;;;;;;1.60;0.50;;;14.20;99.90;;;;;;5052058;28;20060;-66
2022/09/28 12:50:28;;;;;;;3.25;0.85;;;14.50;99.90;;;;;;5051687;28;20476;-66
2022/09/28 12:53:07;;;;;;;;;;;13.90;99.90;;;;;;5052393;28;20049;-66
2022/09/28 12:55:34;;;;;;;2.60;0.60;;;13.70;99.90;;;;;;5051997;28;19964;-66
2022/09/28 12:58:12;;;;;;;2.95;0.75;;;13.90;99.90;;;;;;5051857;28;20053;-66
2022/09/28 13:01:08;;;;;;;3.40;0.75;;;13.80;99.90;;;;;;5051886;28;20049;-66
2022/09/28 13:03:48;;;;;;;9.43;1.25;;;13.80;99.90;;;;;;5050894;28;20431;-66
2022/09/28 13:06:42;;;;;;;4.00;0.82;;;13.70;99.90;;;;;;5051553;28;20106;-65
2022/09/28 13:09:16;;;;;;;1.95;0.60;;;13.50;99.90;;;;;;5051813;28;20071;-66
2022/09/28 13:11:57;;;;;;;5.03;0.70;;;13.80;99.90;;;;;;5051742;28;20080;-66
2022/09/28 13:14:25;;;;;;;1.80;0.73;;;13.60;99.90;;;;;;5051796;28;20052;-67
2022/09/28 13:17:32;;;;;;;4.88;0.82;;;14.40;99.90;;;;;;5051638;28;20052;-66
2022/09/28 13:20:14;;;;;;;4.30;0.80;;;13.70;99.90;;;;;;5051486;28;20049;-66
2022/09/28 13:23:17;;;;;;;2.67;0.80;;;13.20;99.90;;;;;;5050693;28;20385;-65
2022/09/28 13:26:08;;;;;;;3.28;0.90;;;13.50;99.90;;;;;;5051596;28;20089;-66
2022/09/28 13:28:36;;;;;;;0.93;0.63;;;13.40;99.90;;;;;;5051433;28;20064;-66
2022/09/28 13:31:03;;;;;;;1.75;0.75;;;13.40;99.90;;;;;;5051492;28;20051;-65
2022/09/28 13:33:34;;;;;;;1.80;0.75;;;13.30;99.90;;;;;;5051293;28;20045;-65
2022/09/28 13:36:02;;;;;;;5.57;0.80;;;13.60;99.90;;;;;;5051563;28;20059;-65
2022/09/28 13:38:30;;;;;;;2.47;0.60;;;13.40;99.90;;;;;;5051470;28;20080;-65